createdAt,value
2018-02-21T07:43:19.446Z,21.61
2018-02-21T07:44:24.734Z,21.68
2018-02-21T07:45:29.672Z,21.77
2018-02-21T07:46:35.592Z,21.90
2018-02-21T07:47:40.395Z,21.99
2018-02-21T07:48:45.693Z,22.04
2018-02-21T07:49:50.513Z,21.61
2018-02-21T07:50:55.323Z,22.13
2018-02-21T07:52:00.129Z,22.17
2018-02-21T07:53:04.967Z,20.19
2018-02-21T07:54:09.898Z,22.22
2018-02-21T07:55:14.934Z,22.11
2018-02-21T07:56:19.688Z,22.13
2018-02-21T07:57:24.438Z,22.30
2018-02-21T07:58:29.307Z,21.87
2018-02-21T07:59:34.085Z,22.39
2018-02-21T08:00:38.972Z,22.51
2018-02-21T08:01:44.195Z,22.56
2018-02-21T08:02:48.953Z,21.53
2018-02-21T08:03:53.772Z,22.69
2018-02-21T08:04:58.669Z,22.15
2018-02-21T08:06:03.520Z,22.77
2018-02-21T08:07:08.349Z,22.80
2018-02-21T08:08:13.554Z,22.87
2018-02-21T08:09:18.314Z,22.93
2018-02-21T08:10:23.119Z,22.79
2018-02-21T08:11:27.954Z,22.95
2018-02-21T08:12:32.727Z,23.06
2018-02-21T08:13:37.506Z,23.09
2018-02-21T08:14:42.780Z,23.09
2018-02-21T08:15:47.544Z,23.12
2018-02-21T08:16:52.429Z,23.17
2018-02-21T08:17:57.218Z,23.17
2018-02-21T08:19:01.988Z,22.94
2018-02-21T08:20:06.804Z,22.83
2018-02-21T08:21:11.937Z,23.28
2018-02-21T08:22:16.797Z,23.23
2018-02-21T08:23:21.636Z,23.21
2018-02-21T08:24:26.428Z,23.26
2018-02-21T08:25:31.202Z,23.32
2018-02-21T08:26:35.962Z,23.44
2018-02-21T08:27:41.215Z,23.50
2018-02-21T08:28:45.957Z,23.54
2018-02-21T08:29:50.771Z,23.60
2018-02-21T08:30:55.564Z,23.70
2018-02-21T08:32:00.376Z,23.76
2018-02-21T08:33:05.765Z,23.72
2018-02-21T08:34:10.867Z,23.90
2018-02-21T08:35:15.641Z,23.89
2018-02-21T08:36:20.444Z,24.17
2018-02-21T08:37:25.330Z,24.30
2018-02-21T08:38:30.157Z,24.16
2018-02-21T08:39:34.999Z,24.13
2018-02-21T08:40:40.114Z,24.26
2018-02-21T08:41:46.011Z,24.22
2018-02-21T08:42:50.648Z,24.14
2018-02-21T08:43:55.278Z,24.38
2018-02-21T08:45:00.003Z,24.50
2018-02-21T08:46:04.746Z,24.61
2018-02-21T08:47:09.824Z,24.66
2018-02-21T08:48:14.549Z,24.59
2018-02-21T08:49:19.177Z,24.62
2018-02-21T08:50:23.962Z,24.41
2018-02-21T08:51:28.797Z,24.43
